FIA507 LZIB-LUKK
Flight info
| Callsign | FIA507 |
|---|---|
| Flight time | 1h 14m |
| Altitude | 33000 |
| Route | NIT M748 ERGOM/N0446F350 DCT EPARI DCT NIPUR DCT BADOR DCT ARPIG DCT UNIRA |
| Aircraft | A320/M-SDE3FGHIRWY/LB1 |
Departure
| Time | 2026-05-04 18:29 |
|---|---|
| Airport | M. R. Štefánik Airport (LZIB) |
Arrival
| Time | 2026-05-04 19:43 |
|---|---|
| Airport | Chişinău International Airport (LUKK) |
| Time | Latitude | Longitude | Altitude | Speed | Heading |
|---|---|---|---|---|---|
| 2026-05-04 17:54 | 48.16943 | 17.20134 | 432 ft | 0 kts | 314° |
| 2026-05-04 18:14 | 48.16943 | 17.20135 | 432 ft | 1 kts | 314° |
| 2026-05-04 18:14 | 48.16932 | 17.20151 | 419 ft | 3 kts | 321° |
| 2026-05-04 18:15 | 48.16897 | 17.20175 | 423 ft | 3 kts | 12° |
| 2026-05-04 18:15 | 48.16885 | 17.20167 | 432 ft | 0 kts | 44° |
| 2026-05-04 18:21 | 48.16887 | 17.20170 | 422 ft | 1 kts | 44° |
| 2026-05-04 18:21 | 48.16901 | 17.20190 | 422 ft | 3 kts | 44° |
| 2026-05-04 18:22 | 48.16921 | 17.20219 | 428 ft | 4 kts | 44° |
| 2026-05-04 18:22 | 48.16940 | 17.20245 | 427 ft | 5 kts | 44° |
| 2026-05-04 18:22 | 48.16965 | 17.20281 | 424 ft | 4 kts | 44° |
| 2026-05-04 18:22 | 48.16985 | 17.20311 | 429 ft | 5 kts | 44° |
| 2026-05-04 18:23 | 48.17022 | 17.20365 | 424 ft | 8 kts | 44° |
| 2026-05-04 18:23 | 48.17059 | 17.20419 | 419 ft | 7 kts | 44° |
| 2026-05-04 18:23 | 48.17089 | 17.20462 | 428 ft | 5 kts | 44° |
| 2026-05-04 18:23 | 48.17118 | 17.20505 | 420 ft | 9 kts | 44° |
| 2026-05-04 18:24 | 48.17167 | 17.20570 | 424 ft | 9 kts | 28° |
| 2026-05-04 18:24 | 48.17219 | 17.20561 | 419 ft | 8 kts | 333° |
| 2026-05-04 18:24 | 48.17278 | 17.20476 | 422 ft | 14 kts | 314° |
| 2026-05-04 18:24 | 48.17341 | 17.20383 | 424 ft | 12 kts | 316° |
| 2026-05-04 18:25 | 48.17400 | 17.20312 | 427 ft | 10 kts | 336° |
| 2026-05-04 18:25 | 48.17445 | 17.20302 | 430 ft | 0 kts | 4° |
| 2026-05-04 18:26 | 48.17451 | 17.20303 | 425 ft | 3 kts | 4° |
| 2026-05-04 18:26 | 48.17502 | 17.20334 | 430 ft | 9 kts | 38° |
| 2026-05-04 18:27 | 48.17542 | 17.20395 | 422 ft | 7 kts | 46° |
| 2026-05-04 18:27 | 48.17538 | 17.20450 | 430 ft | 6 kts | 117° |
| 2026-05-04 18:27 | 48.17496 | 17.20513 | 419 ft | 11 kts | 137° |
| 2026-05-04 18:27 | 48.17443 | 17.20595 | 426 ft | 11 kts | 132° |
| 2026-05-04 18:28 | 48.17348 | 17.20742 | 426 ft | 45 kts | 134° |
| 2026-05-04 18:28 | 48.16968 | 17.21332 | 430 ft | 109 kts | 134° |
| 2026-05-04 18:28 | 48.16318 | 17.22340 | 429 ft | 157 kts | 134° |
| 2026-05-04 18:28 | 48.15527 | 17.23553 | 959 ft | 159 kts | 135° |
| 2026-05-04 18:29 | 48.14746 | 17.24746 | 1648 ft | 161 kts | 140° |
| 2026-05-04 18:29 | 48.13939 | 17.25974 | 2102 ft | 176 kts | 140° |
| 2026-05-04 18:29 | 48.13010 | 17.27363 | 2343 ft | 201 kts | 139° |
| 2026-05-04 18:29 | 48.12100 | 17.29127 | 2685 ft | 232 kts | 118° |
| 2026-05-04 18:30 | 48.12552 | 17.34397 | 3762 ft | 280 kts | 73° |
| 2026-05-04 18:30 | 48.13272 | 17.37133 | 4562 ft | 286 kts | 71° |
| 2026-05-04 18:30 | 48.14026 | 17.39914 | 4890 ft | 289 kts | 71° |
| 2026-05-04 18:31 | 48.14765 | 17.42725 | 5368 ft | 290 kts | 76° |
| 2026-05-04 18:31 | 48.15018 | 17.45679 | 6257 ft | 286 kts | 97° |
| 2026-05-04 18:31 | 48.14541 | 17.48544 | 7022 ft | 285 kts | 114° |
| 2026-05-04 18:31 | 48.13816 | 17.51311 | 7836 ft | 287 kts | 114° |
| 2026-05-04 18:32 | 48.13077 | 17.54097 | 8646 ft | 289 kts | 114° |
| 2026-05-04 18:32 | 48.12331 | 17.56903 | 9432 ft | 292 kts | 114° |
| 2026-05-04 18:32 | 48.11577 | 17.59736 | 10195 ft | 295 kts | 114° |
| 2026-05-04 18:32 | 48.10788 | 17.62684 | 10463 ft | 317 kts | 114° |
| 2026-05-04 18:33 | 48.09938 | 17.65860 | 10641 ft | 340 kts | 114° |
| 2026-05-04 18:33 | 48.09042 | 17.69223 | 11008 ft | 353 kts | 114° |
| 2026-05-04 18:33 | 48.08132 | 17.72666 | 11605 ft | 359 kts | 114° |
| 2026-05-04 18:33 | 48.07210 | 17.76157 | 12243 ft | 363 kts | 114° |
| 2026-05-04 18:34 | 48.06277 | 17.79684 | 12908 ft | 366 kts | 114° |
| 2026-05-04 18:34 | 48.05333 | 17.83238 | 13583 ft | 370 kts | 114° |
| 2026-05-04 18:34 | 48.04378 | 17.86823 | 14195 ft | 373 kts | 114° |
| 2026-05-04 18:34 | 48.03415 | 17.90437 | 14771 ft | 376 kts | 114° |
| 2026-05-04 18:35 | 48.02441 | 17.94084 | 15327 ft | 380 kts | 114° |
| 2026-05-04 18:35 | 48.01788 | 17.96515 | 15708 ft | 382 kts | 114° |
| 2026-05-04 18:35 | 48.00791 | 18.00212 | 16263 ft | 385 kts | 114° |
| 2026-05-04 18:35 | 47.99785 | 18.03945 | 16812 ft | 389 kts | 114° |
| 2026-05-04 18:36 | 47.98772 | 18.07699 | 17367 ft | 392 kts | 114° |
| 2026-05-04 18:36 | 47.97746 | 18.11487 | 17890 ft | 395 kts | 114° |
| 2026-05-04 18:36 | 47.96712 | 18.15301 | 18430 ft | 397 kts | 113° |
| 2026-05-04 18:36 | 47.95672 | 18.19141 | 18886 ft | 400 kts | 113° |
| 2026-05-04 18:37 | 47.94625 | 18.23004 | 19335 ft | 403 kts | 113° |
| 2026-05-04 18:37 | 47.93570 | 18.26895 | 19797 ft | 406 kts | 113° |
| 2026-05-04 18:37 | 47.92505 | 18.30824 | 20243 ft | 409 kts | 113° |
| 2026-05-04 18:37 | 47.91433 | 18.34774 | 20677 ft | 412 kts | 113° |
| 2026-05-04 18:38 | 47.90365 | 18.38697 | 21099 ft | 415 kts | 112° |
| 2026-05-04 18:38 | 47.89257 | 18.42749 | 21538 ft | 418 kts | 112° |
| 2026-05-04 18:38 | 47.88167 | 18.46724 | 21945 ft | 421 kts | 112° |
| 2026-05-04 18:38 | 47.87054 | 18.50779 | 22378 ft | 423 kts | 112° |
| 2026-05-04 18:39 | 47.85937 | 18.54845 | 22813 ft | 426 kts | 112° |
| 2026-05-04 18:39 | 47.84809 | 18.58932 | 23236 ft | 428 kts | 112° |
| 2026-05-04 18:39 | 47.83847 | 18.63139 | 23618 ft | 431 kts | 101° |
| 2026-05-04 18:39 | 47.83480 | 18.67575 | 23936 ft | 434 kts | 95° |
| 2026-05-04 18:40 | 47.83198 | 18.72054 | 24280 ft | 436 kts | 95° |
| 2026-05-04 18:40 | 47.82918 | 18.76615 | 24621 ft | 438 kts | 95° |
| 2026-05-04 18:40 | 47.82648 | 18.81074 | 24942 ft | 440 kts | 95° |
| 2026-05-04 18:40 | 47.82372 | 18.85612 | 25267 ft | 441 kts | 95° |
| 2026-05-04 18:41 | 47.82090 | 18.90167 | 25596 ft | 443 kts | 95° |
| 2026-05-04 18:41 | 47.81803 | 18.94737 | 25940 ft | 445 kts | 95° |
| 2026-05-04 18:41 | 47.81513 | 18.99326 | 26276 ft | 446 kts | 95° |
| 2026-05-04 18:41 | 47.81220 | 19.03933 | 26594 ft | 448 kts | 95° |
| 2026-05-04 18:42 | 47.80923 | 19.08551 | 26912 ft | 450 kts | 95° |
| 2026-05-04 18:42 | 47.80622 | 19.13188 | 27224 ft | 451 kts | 95° |
| 2026-05-04 18:42 | 47.80319 | 19.17849 | 27525 ft | 453 kts | 95° |
| 2026-05-04 18:42 | 47.80014 | 19.22529 | 27817 ft | 455 kts | 95° |
| 2026-05-04 18:43 | 47.79704 | 19.27221 | 28109 ft | 457 kts | 95° |
| 2026-05-04 18:43 | 47.79389 | 19.31925 | 28393 ft | 458 kts | 94° |
| 2026-05-04 18:43 | 47.79072 | 19.36653 | 28653 ft | 460 kts | 94° |
| 2026-05-04 18:43 | 47.78752 | 19.41398 | 28918 ft | 462 kts | 94° |
| 2026-05-04 18:44 | 47.78429 | 19.46165 | 29180 ft | 464 kts | 94° |
| 2026-05-04 18:44 | 47.78213 | 19.49333 | 29346 ft | 465 kts | 94° |
| 2026-05-04 18:44 | 47.77777 | 19.55752 | 29683 ft | 468 kts | 94° |
| 2026-05-04 18:44 | 47.77448 | 19.60552 | 30042 ft | 467 kts | 94° |
| 2026-05-04 18:45 | 47.77119 | 19.65344 | 30375 ft | 466 kts | 94° |
| 2026-05-04 18:45 | 47.76787 | 19.70134 | 30680 ft | 465 kts | 94° |
| 2026-05-04 18:45 | 47.76452 | 19.74912 | 31004 ft | 464 kts | 94° |
| 2026-05-04 18:45 | 47.76114 | 19.79673 | 31309 ft | 463 kts | 94° |
| 2026-05-04 18:46 | 47.75774 | 19.84433 | 31634 ft | 462 kts | 94° |
| 2026-05-04 18:46 | 47.75436 | 19.89172 | 31957 ft | 461 kts | 94° |
| 2026-05-04 18:46 | 47.75100 | 19.93899 | 32274 ft | 460 kts | 94° |
| 2026-05-04 18:46 | 47.74761 | 19.98614 | 32593 ft | 459 kts | 94° |
| 2026-05-04 18:47 | 47.74417 | 20.03322 | 32906 ft | 458 kts | 95° |
| 2026-05-04 18:47 | 47.74070 | 20.08025 | 33049 ft | 457 kts | 95° |
| 2026-05-04 18:47 | 47.73725 | 20.12712 | 33067 ft | 456 kts | 95° |
| 2026-05-04 18:47 | 47.73377 | 20.17395 | 33194 ft | 457 kts | 94° |
| 2026-05-04 18:48 | 47.73025 | 20.22079 | 33508 ft | 456 kts | 94° |
| 2026-05-04 18:48 | 47.72676 | 20.26745 | 33828 ft | 454 kts | 94° |
| 2026-05-04 18:48 | 47.72327 | 20.31401 | 34131 ft | 453 kts | 94° |
| 2026-05-04 18:48 | 47.71977 | 20.36044 | 34378 ft | 452 kts | 94° |
| 2026-05-04 18:49 | 47.71626 | 20.40686 | 34618 ft | 452 kts | 94° |
| 2026-05-04 18:49 | 47.71275 | 20.45326 | 34839 ft | 452 kts | 94° |
| 2026-05-04 18:49 | 47.70920 | 20.49968 | 35020 ft | 453 kts | 95° |
| 2026-05-04 18:50 | 47.70199 | 20.59257 | 35069 ft | 453 kts | 95° |
| 2026-05-04 18:50 | 47.69469 | 20.68521 | 35059 ft | 452 kts | 94° |
| 2026-05-04 18:51 | 47.68729 | 20.77781 | 35063 ft | 452 kts | 94° |
| 2026-05-04 18:51 | 47.68076 | 20.87044 | 35062 ft | 451 kts | 92° |
| 2026-05-04 18:52 | 47.67691 | 20.96325 | 35070 ft | 451 kts | 90° |
| 2026-05-04 18:52 | 47.67373 | 21.05553 | 35072 ft | 451 kts | 90° |
| 2026-05-04 18:53 | 47.66997 | 21.14831 | 35059 ft | 451 kts | 91° |
| 2026-05-04 18:53 | 47.66564 | 21.24105 | 35062 ft | 451 kts | 91° |
| 2026-05-04 18:54 | 47.66110 | 21.33369 | 35056 ft | 450 kts | 91° |
| 2026-05-04 18:54 | 47.65667 | 21.42642 | 35057 ft | 450 kts | 91° |
| 2026-05-04 18:55 | 47.65233 | 21.51908 | 35069 ft | 450 kts | 91° |
| 2026-05-04 18:55 | 47.64552 | 21.65793 | 35066 ft | 450 kts | 91° |
| 2026-05-04 18:56 | 47.64095 | 21.75054 | 35067 ft | 450 kts | 91° |
| 2026-05-04 18:56 | 47.63628 | 21.84304 | 35070 ft | 450 kts | 91° |
| 2026-05-04 18:57 | 47.63151 | 21.93542 | 35082 ft | 449 kts | 91° |
| 2026-05-04 18:57 | 47.62671 | 22.02765 | 35083 ft | 448 kts | 91° |
| 2026-05-04 18:58 | 47.62181 | 22.11981 | 35081 ft | 448 kts | 91° |
| 2026-05-04 18:58 | 47.61683 | 22.21128 | 35077 ft | 448 kts | 91° |
| 2026-05-04 18:59 | 47.61174 | 22.30339 | 35077 ft | 448 kts | 91° |
| 2026-05-04 18:59 | 47.60659 | 22.39543 | 35089 ft | 448 kts | 91° |
| 2026-05-04 19:00 | 47.60144 | 22.48745 | 35084 ft | 448 kts | 91° |
| 2026-05-04 19:00 | 47.59620 | 22.57929 | 35071 ft | 448 kts | 91° |
| 2026-05-04 19:01 | 47.59081 | 22.67117 | 35067 ft | 448 kts | 92° |
| 2026-05-04 19:01 | 47.58542 | 22.76299 | 35073 ft | 448 kts | 92° |
| 2026-05-04 19:02 | 47.57992 | 22.85487 | 35065 ft | 448 kts | 92° |
| 2026-05-04 19:02 | 47.57435 | 22.94670 | 35060 ft | 448 kts | 92° |
| 2026-05-04 19:03 | 47.56871 | 23.03849 | 35060 ft | 448 kts | 92° |
| 2026-05-04 19:03 | 47.56303 | 23.13030 | 35062 ft | 448 kts | 92° |
| 2026-05-04 19:04 | 47.55726 | 23.22202 | 35077 ft | 448 kts | 92° |
| 2026-05-04 19:04 | 47.55143 | 23.31378 | 35077 ft | 448 kts | 93° |
| 2026-05-04 19:05 | 47.54549 | 23.40561 | 35088 ft | 448 kts | 93° |
| 2026-05-04 19:05 | 47.53947 | 23.49737 | 35082 ft | 448 kts | 93° |
| 2026-05-04 19:06 | 47.53338 | 23.58911 | 35080 ft | 448 kts | 93° |
| 2026-05-04 19:06 | 47.52726 | 23.68075 | 35090 ft | 448 kts | 93° |
| 2026-05-04 19:07 | 47.52104 | 23.77243 | 35093 ft | 448 kts | 93° |
| 2026-05-04 19:07 | 47.51475 | 23.86405 | 35093 ft | 448 kts | 93° |
| 2026-05-04 19:08 | 47.50840 | 23.95570 | 35098 ft | 448 kts | 93° |
| 2026-05-04 19:08 | 47.50201 | 24.04742 | 35118 ft | 448 kts | 94° |
| 2026-05-04 19:09 | 47.49548 | 24.13918 | 35111 ft | 448 kts | 94° |
| 2026-05-04 19:09 | 47.48880 | 24.23078 | 35104 ft | 448 kts | 94° |
| 2026-05-04 19:10 | 47.48213 | 24.32238 | 35101 ft | 448 kts | 94° |
| 2026-05-04 19:10 | 47.47550 | 24.41394 | 35101 ft | 448 kts | 94° |
| 2026-05-04 19:11 | 47.46873 | 24.50545 | 35116 ft | 448 kts | 94° |
| 2026-05-04 19:11 | 47.46178 | 24.59684 | 35118 ft | 447 kts | 94° |
| 2026-05-04 19:12 | 47.45127 | 24.73392 | 35119 ft | 448 kts | 94° |
| 2026-05-04 19:13 | 47.44428 | 24.82522 | 35119 ft | 447 kts | 94° |
| 2026-05-04 19:13 | 47.43728 | 24.91643 | 35125 ft | 447 kts | 94° |
| 2026-05-04 19:14 | 47.43009 | 25.00756 | 35119 ft | 447 kts | 95° |
| 2026-05-04 19:14 | 47.42281 | 25.09863 | 35118 ft | 447 kts | 95° |
| 2026-05-04 19:15 | 47.41548 | 25.18966 | 35117 ft | 447 kts | 95° |
| 2026-05-04 19:15 | 47.40809 | 25.28070 | 35111 ft | 447 kts | 95° |
| 2026-05-04 19:16 | 47.40062 | 25.37177 | 35104 ft | 447 kts | 95° |
| 2026-05-04 19:16 | 47.39316 | 25.46220 | 35098 ft | 447 kts | 95° |
| 2026-05-04 19:17 | 47.38549 | 25.55320 | 35102 ft | 447 kts | 95° |
| 2026-05-04 19:17 | 47.37776 | 25.64414 | 35098 ft | 446 kts | 95° |
| 2026-05-04 19:18 | 47.37005 | 25.73505 | 35087 ft | 447 kts | 95° |
| 2026-05-04 19:18 | 47.36220 | 25.82586 | 35094 ft | 446 kts | 95° |
| 2026-05-04 19:19 | 47.35557 | 25.90196 | 35089 ft | 446 kts | 95° |
| 2026-05-04 19:19 | 47.34770 | 25.99277 | 35082 ft | 446 kts | 95° |
| 2026-05-04 19:20 | 47.33972 | 26.08350 | 35078 ft | 446 kts | 95° |
| 2026-05-04 19:20 | 47.33159 | 26.17425 | 34939 ft | 447 kts | 95° |
| 2026-05-04 19:20 | 47.32746 | 26.21968 | 34713 ft | 447 kts | 96° |
| 2026-05-04 19:21 | 47.32330 | 26.26510 | 34462 ft | 447 kts | 96° |
| 2026-05-04 19:21 | 47.31913 | 26.31044 | 34216 ft | 447 kts | 96° |
| 2026-05-04 19:21 | 47.31494 | 26.35583 | 33968 ft | 447 kts | 96° |
| 2026-05-04 19:21 | 47.31078 | 26.40128 | 33693 ft | 448 kts | 96° |
| 2026-05-04 19:22 | 47.30664 | 26.44680 | 33409 ft | 448 kts | 96° |
| 2026-05-04 19:22 | 47.30248 | 26.49234 | 32705 ft | 451 kts | 96° |
| 2026-05-04 19:22 | 47.29824 | 26.53841 | 31653 ft | 456 kts | 96° |
| 2026-05-04 19:22 | 47.29393 | 26.58483 | 30767 ft | 459 kts | 96° |
| 2026-05-04 19:23 | 47.28963 | 26.63074 | 30072 ft | 457 kts | 96° |
| 2026-05-04 19:23 | 47.28529 | 26.67685 | 29386 ft | 452 kts | 96° |
| 2026-05-04 19:23 | 47.28094 | 26.72242 | 28753 ft | 446 kts | 96° |
| 2026-05-04 19:23 | 47.27664 | 26.76729 | 28130 ft | 440 kts | 96° |
| 2026-05-04 19:24 | 47.27241 | 26.81159 | 27514 ft | 435 kts | 96° |
| 2026-05-04 19:24 | 47.26822 | 26.85545 | 26906 ft | 430 kts | 96° |
| 2026-05-04 19:24 | 47.26409 | 26.89889 | 26306 ft | 426 kts | 96° |
| 2026-05-04 19:24 | 47.25999 | 26.94185 | 25718 ft | 422 kts | 96° |
| 2026-05-04 19:25 | 47.25589 | 26.98439 | 25137 ft | 418 kts | 96° |
| 2026-05-04 19:25 | 47.25179 | 27.02659 | 24567 ft | 415 kts | 96° |
| 2026-05-04 19:25 | 47.24769 | 27.06845 | 23996 ft | 412 kts | 96° |
| 2026-05-04 19:25 | 47.24362 | 27.10993 | 23409 ft | 408 kts | 96° |
| 2026-05-04 19:26 | 47.23957 | 27.15112 | 22862 ft | 403 kts | 96° |
| 2026-05-04 19:26 | 47.23555 | 27.19162 | 22371 ft | 397 kts | 96° |
| 2026-05-04 19:26 | 47.23158 | 27.23154 | 21893 ft | 391 kts | 96° |
| 2026-05-04 19:26 | 47.22768 | 27.27086 | 21432 ft | 386 kts | 96° |
| 2026-05-04 19:27 | 47.22381 | 27.30963 | 20990 ft | 381 kts | 95° |
| 2026-05-04 19:27 | 47.21996 | 27.34792 | 20547 ft | 376 kts | 95° |
| 2026-05-04 19:27 | 47.21616 | 27.38569 | 20105 ft | 372 kts | 95° |
| 2026-05-04 19:27 | 47.21238 | 27.42316 | 19672 ft | 368 kts | 95° |
| 2026-05-04 19:28 | 47.20863 | 27.46023 | 19243 ft | 365 kts | 95° |
| 2026-05-04 19:28 | 47.20489 | 27.49703 | 18793 ft | 363 kts | 95° |
| 2026-05-04 19:28 | 47.20114 | 27.53367 | 18335 ft | 361 kts | 95° |
| 2026-05-04 19:28 | 47.19742 | 27.57001 | 17846 ft | 358 kts | 95° |
| 2026-05-04 19:29 | 47.19373 | 27.60608 | 17390 ft | 355 kts | 95° |
| 2026-05-04 19:29 | 47.19010 | 27.64179 | 16934 ft | 352 kts | 95° |
| 2026-05-04 19:29 | 47.18647 | 27.67726 | 16481 ft | 349 kts | 95° |
| 2026-05-04 19:29 | 47.18286 | 27.71243 | 16026 ft | 347 kts | 95° |
| 2026-05-04 19:30 | 47.17922 | 27.74743 | 15570 ft | 345 kts | 95° |
| 2026-05-04 19:30 | 47.17509 | 27.78222 | 14977 ft | 349 kts | 102° |
| 2026-05-04 19:30 | 47.16602 | 27.81578 | 14412 ft | 355 kts | 109° |
| 2026-05-04 19:30 | 47.15608 | 27.84891 | 13934 ft | 353 kts | 109° |
| 2026-05-04 19:31 | 47.14634 | 27.88142 | 13426 ft | 352 kts | 109° |
| 2026-05-04 19:31 | 47.13652 | 27.91416 | 12837 ft | 350 kts | 109° |
| 2026-05-04 19:31 | 47.12653 | 27.94740 | 11861 ft | 361 kts | 109° |
| 2026-05-04 19:31 | 47.11635 | 27.98122 | 11255 ft | 353 kts | 109° |
| 2026-05-04 19:32 | 47.10668 | 28.01289 | 11129 ft | 326 kts | 109° |
| 2026-05-04 19:32 | 47.09770 | 28.04210 | 10992 ft | 303 kts | 109° |
| 2026-05-04 19:32 | 47.08927 | 28.06964 | 10614 ft | 291 kts | 108° |
| 2026-05-04 19:32 | 47.08111 | 28.09663 | 10369 ft | 289 kts | 108° |
| 2026-05-04 19:33 | 47.07301 | 28.12365 | 10233 ft | 290 kts | 108° |
| 2026-05-04 19:33 | 47.06489 | 28.15071 | 10103 ft | 290 kts | 108° |
| 2026-05-04 19:33 | 47.05672 | 28.17779 | 9813 ft | 293 kts | 108° |
| 2026-05-04 19:33 | 47.04841 | 28.20528 | 9396 ft | 293 kts | 108° |
| 2026-05-04 19:34 | 47.04015 | 28.23233 | 9064 ft | 290 kts | 108° |
| 2026-05-04 19:34 | 47.03195 | 28.25912 | 8606 ft | 286 kts | 108° |
| 2026-05-04 19:34 | 47.02386 | 28.28551 | 7996 ft | 282 kts | 108° |
| 2026-05-04 19:34 | 47.01587 | 28.31158 | 7347 ft | 279 kts | 108° |
| 2026-05-04 19:35 | 47.00798 | 28.33732 | 6777 ft | 274 kts | 108° |
| 2026-05-04 19:35 | 47.00027 | 28.36250 | 6283 ft | 268 kts | 109° |
| 2026-05-04 19:35 | 46.99266 | 28.38742 | 5809 ft | 267 kts | 109° |
| 2026-05-04 19:35 | 46.98508 | 28.41217 | 5352 ft | 265 kts | 110° |
| 2026-05-04 19:36 | 46.97751 | 28.43672 | 4898 ft | 263 kts | 111° |
| 2026-05-04 19:36 | 46.97000 | 28.46101 | 4612 ft | 256 kts | 111° |
| 2026-05-04 19:36 | 46.96279 | 28.48431 | 4151 ft | 248 kts | 111° |
| 2026-05-04 19:36 | 46.95596 | 28.50637 | 4053 ft | 231 kts | 111° |
| 2026-05-04 19:37 | 46.94944 | 28.52742 | 3944 ft | 220 kts | 111° |
| 2026-05-04 19:37 | 46.94340 | 28.54699 | 3842 ft | 202 kts | 111° |
| 2026-05-04 19:37 | 46.93780 | 28.56514 | 3771 ft | 191 kts | 110° |
| 2026-05-04 19:37 | 46.93243 | 28.58256 | 3710 ft | 186 kts | 110° |
| 2026-05-04 19:38 | 46.92716 | 28.59968 | 3602 ft | 184 kts | 110° |
| 2026-05-04 19:38 | 46.92231 | 28.61685 | 3532 ft | 181 kts | 101° |
| 2026-05-04 19:38 | 46.92127 | 28.63490 | 3516 ft | 178 kts | 86° |
| 2026-05-04 19:38 | 46.92170 | 28.65301 | 3508 ft | 178 kts | 86° |
| 2026-05-04 19:39 | 46.92213 | 28.67112 | 3464 ft | 179 kts | 86° |
| 2026-05-04 19:39 | 46.92253 | 28.68875 | 3307 ft | 163 kts | 86° |
| 2026-05-04 19:39 | 46.92288 | 28.70444 | 3106 ft | 148 kts | 86° |
| 2026-05-04 19:39 | 46.92322 | 28.71914 | 2929 ft | 143 kts | 86° |
| 2026-05-04 19:40 | 46.92354 | 28.73345 | 2749 ft | 140 kts | 86° |
| 2026-05-04 19:40 | 46.92386 | 28.74763 | 2557 ft | 139 kts | 86° |
| 2026-05-04 19:40 | 46.92417 | 28.76173 | 2382 ft | 139 kts | 87° |
| 2026-05-04 19:40 | 46.92446 | 28.77580 | 2203 ft | 138 kts | 88° |
| 2026-05-04 19:41 | 46.92460 | 28.78983 | 2011 ft | 138 kts | 88° |
| 2026-05-04 19:41 | 46.92511 | 28.80381 | 1807 ft | 137 kts | 84° |
| 2026-05-04 19:41 | 46.92567 | 28.81772 | 1650 ft | 137 kts | 89° |
| 2026-05-04 19:41 | 46.92571 | 28.83172 | 1420 ft | 137 kts | 88° |
| 2026-05-04 19:42 | 46.92591 | 28.84573 | 1271 ft | 139 kts | 88° |
| 2026-05-04 19:42 | 46.92647 | 28.85993 | 1128 ft | 141 kts | 88° |
| 2026-05-04 19:42 | 46.92666 | 28.87440 | 927 ft | 143 kts | 89° |
| 2026-05-04 19:42 | 46.92702 | 28.88899 | 725 ft | 144 kts | 89° |
| 2026-05-04 19:43 | 46.92724 | 28.90365 | 507 ft | 144 kts | 89° |
| 2026-05-04 19:43 | 46.92754 | 28.91784 | 407 ft | 128 kts | 89° |
| 2026-05-04 19:43 | 46.92774 | 28.92838 | 408 ft | 79 kts | 88° |
| 2026-05-04 19:43 | 46.92784 | 28.93410 | 408 ft | 44 kts | 88° |
| 2026-05-04 19:44 | 46.92794 | 28.93840 | 408 ft | 43 kts | 89° |
| 2026-05-04 19:44 | 46.92804 | 28.94284 | 408 ft | 44 kts | 88° |
| 2026-05-04 19:44 | 46.92813 | 28.94765 | 408 ft | 46 kts | 88° |
| 2026-05-04 19:44 | 46.92832 | 28.95102 | 407 ft | 15 kts | 53° |
| 2026-05-04 19:45 | 46.92890 | 28.95117 | 409 ft | 10 kts | 358° |
| 2026-05-04 19:45 | 46.92950 | 28.95114 | 410 ft | 8 kts | 358° |
| 2026-05-04 19:45 | 46.93004 | 28.95111 | 408 ft | 12 kts | 358° |
| 2026-05-04 19:45 | 46.93130 | 28.95057 | 409 ft | 22 kts | 334° |
| 2026-05-04 19:46 | 46.93265 | 28.94945 | 408 ft | 23 kts | 324° |
| 2026-05-04 19:46 | 46.93325 | 28.94732 | 408 ft | 24 kts | 277° |
| 2026-05-04 19:46 | 46.93345 | 28.94493 | 408 ft | 22 kts | 277° |
| 2026-05-04 19:46 | 46.93362 | 28.94289 | 408 ft | 19 kts | 276° |
| 2026-05-04 19:47 | 46.93374 | 28.94147 | 408 ft | 11 kts | 277° |
| 2026-05-04 19:47 | 46.93385 | 28.94037 | 408 ft | 13 kts | 278° |
| 2026-05-04 19:47 | 46.93397 | 28.93865 | 408 ft | 19 kts | 265° |
| 2026-05-04 19:47 | 46.93406 | 28.93677 | 408 ft | 18 kts | 276° |
| 2026-05-04 19:48 | 46.93421 | 28.93494 | 408 ft | 18 kts | 281° |
| 2026-05-04 19:48 | 46.93438 | 28.93313 | 408 ft | 18 kts | 276° |
| 2026-05-04 19:48 | 46.93452 | 28.93137 | 408 ft | 11 kts | 276° |
| 2026-05-04 19:48 | 46.93421 | 28.93104 | 408 ft | 5 kts | 185° |
| 2026-05-04 19:49 | 46.93405 | 28.93101 | 408 ft | 0 kts | 187° |